createdAt,value
2018-11-05T00:02:24.821Z,9.40
2018-11-05T00:04:53.169Z,9.30
2018-11-05T00:07:27.863Z,9.30
2018-11-05T00:09:56.143Z,9.30
2018-11-05T00:12:24.445Z,9.40
2018-11-05T00:14:52.760Z,9.40
2018-11-05T00:17:21.056Z,9.30
2018-11-05T00:19:49.378Z,9.30
2018-11-05T00:22:17.688Z,9.40
2018-11-05T00:24:46.011Z,9.30
2018-11-05T00:27:14.314Z,9.30
2018-11-05T00:29:42.646Z,9.30
2018-11-05T00:32:10.948Z,9.30
2018-11-05T00:34:39.298Z,9.30
2018-11-05T00:37:07.584Z,9.40
2018-11-05T00:39:35.907Z,9.40
2018-11-05T00:42:04.230Z,9.40
2018-11-05T00:44:32.558Z,9.40
2018-11-05T00:47:00.866Z,9.40
2018-11-05T00:49:29.405Z,9.40
2018-11-05T00:51:58.074Z,9.40
2018-11-05T00:54:26.392Z,9.50
2018-11-05T00:56:54.783Z,9.50
2018-11-05T00:59:23.148Z,9.50
2018-11-05T01:01:51.471Z,9.50
2018-11-05T01:04:19.791Z,9.50
2018-11-05T01:06:48.121Z,9.50
2018-11-05T01:09:16.458Z,9.50
2018-11-05T01:11:44.816Z,9.50
2018-11-05T01:14:13.137Z,9.50
2018-11-05T01:16:41.485Z,9.50
2018-11-05T01:19:09.795Z,9.40
2018-11-05T01:21:38.123Z,9.50
2018-11-05T01:24:06.429Z,9.50
2018-11-05T01:26:34.799Z,9.50
2018-11-05T01:29:03.121Z,9.50
2018-11-05T01:31:31.467Z,9.50
2018-11-05T01:33:59.819Z,9.50
2018-11-05T01:36:28.158Z,9.50
2018-11-05T01:38:56.547Z,9.50
2018-11-05T01:41:24.944Z,9.50
2018-11-05T01:43:53.269Z,9.50
2018-11-05T01:46:21.595Z,9.50
2018-11-05T01:48:49.947Z,9.50
2018-11-05T01:51:25.060Z,9.50
2018-11-05T01:53:53.344Z,9.50
2018-11-05T01:56:21.701Z,9.50
2018-11-05T01:58:49.996Z,9.50
2018-11-05T02:01:18.327Z,9.50
2018-11-05T02:03:46.622Z,9.50
2018-11-05T02:06:14.939Z,9.50
2018-11-05T02:08:43.305Z,9.50
2018-11-05T02:11:11.632Z,9.50
2018-11-05T02:13:39.935Z,9.50
2018-11-05T02:16:08.271Z,9.60
2018-11-05T02:18:36.534Z,9.60
2018-11-05T02:21:05.005Z,9.50
2018-11-05T02:23:33.300Z,9.50
2018-11-05T02:26:01.623Z,9.50
2018-11-05T02:28:30.027Z,9.50
2018-11-05T02:30:58.355Z,9.50
2018-11-05T02:33:26.683Z,9.50
2018-11-05T02:35:54.996Z,9.50
2018-11-05T02:38:23.327Z,9.50
2018-11-05T02:40:51.707Z,9.50
2018-11-05T02:43:20.096Z,9.50
2018-11-05T02:45:48.392Z,9.50
2018-11-05T02:48:16.713Z,9.50
2018-11-05T02:50:45.038Z,9.50
2018-11-05T02:53:13.416Z,9.50
2018-11-05T02:55:41.733Z,9.50
2018-11-05T02:58:10.082Z,9.50
2018-11-05T03:00:38.402Z,9.50
2018-11-05T03:03:06.764Z,9.50
2018-11-05T03:05:35.076Z,9.50
2018-11-05T03:08:03.415Z,9.50
2018-11-05T03:10:31.747Z,9.50
2018-11-05T03:13:00.079Z,9.50
2018-11-05T03:15:28.419Z,9.50
2018-11-05T03:17:56.759Z,9.50
2018-11-05T03:20:25.098Z,9.50
2018-11-05T03:22:53.450Z,9.50
2018-11-05T03:25:21.767Z,9.50
2018-11-05T03:27:50.206Z,9.50
2018-11-05T03:30:19.478Z,9.50
2018-11-05T03:32:48.085Z,9.50
2018-11-05T03:35:16.577Z,9.40
2018-11-05T03:37:45.971Z,9.40
2018-11-05T03:40:14.634Z,9.50
2018-11-05T03:42:43.336Z,9.40
2018-11-05T03:45:13.130Z,9.40
2018-11-05T03:47:42.707Z,9.40
2018-11-05T03:50:12.898Z,9.40
2018-11-05T03:52:41.512Z,9.40
2018-11-05T03:55:10.065Z,9.40
2018-11-05T03:57:38.495Z,9.40
2018-11-05T04:00:08.031Z,9.40
2018-11-05T04:02:36.487Z,9.40
2018-11-05T04:05:05.402Z,9.40
2018-11-05T04:07:33.762Z,9.40
2018-11-05T04:10:02.095Z,9.40
2018-11-05T04:12:30.420Z,9.30
2018-11-05T04:14:58.784Z,9.40
2018-11-05T04:17:27.226Z,9.40
2018-11-05T04:19:55.547Z,9.40
2018-11-05T04:22:23.849Z,9.30
2018-11-05T04:24:52.186Z,9.40
2018-11-05T04:27:20.512Z,9.40
2018-11-05T04:29:48.847Z,9.30
2018-11-05T04:32:17.195Z,9.30
2018-11-05T04:34:45.551Z,9.30
2018-11-05T04:37:13.876Z,9.40
2018-11-05T04:39:42.223Z,9.40
2018-11-05T04:42:10.551Z,9.40
2018-11-05T04:44:38.894Z,9.30
2018-11-05T04:47:07.233Z,9.30
2018-11-05T04:49:35.598Z,9.30
2018-11-05T04:52:03.906Z,9.30
2018-11-05T04:54:32.284Z,9.40
2018-11-05T04:57:00.603Z,9.40
2018-11-05T04:59:29.039Z,9.40
2018-11-05T05:01:57.371Z,9.40
2018-11-05T05:04:25.735Z,9.40
2018-11-05T05:06:54.158Z,9.30
2018-11-05T05:09:22.554Z,9.40
2018-11-05T05:11:50.870Z,9.40
2018-11-05T05:14:19.186Z,9.40
2018-11-05T05:16:47.522Z,9.40
2018-11-05T05:19:15.862Z,9.40
2018-11-05T05:21:44.211Z,9.40
2018-11-05T05:24:12.795Z,9.40
2018-11-05T05:26:41.160Z,9.40
2018-11-05T05:29:09.683Z,9.40
2018-11-05T05:31:38.011Z,9.40
2018-11-05T05:34:06.600Z,9.30
2018-11-05T05:36:34.963Z,9.30
2018-11-05T05:39:04.799Z,9.40
2018-11-05T05:41:33.195Z,9.40
2018-11-05T05:44:01.522Z,9.40
2018-11-05T05:46:29.858Z,9.40
2018-11-05T05:48:58.183Z,9.40
2018-11-05T05:51:26.495Z,9.40
2018-11-05T05:53:54.874Z,9.50
2018-11-05T05:56:23.212Z,9.50
2018-11-05T05:58:51.538Z,9.40
2018-11-05T06:01:19.864Z,9.40
2018-11-05T06:03:48.217Z,9.50
2018-11-05T06:06:16.680Z,9.40
2018-11-05T06:08:44.895Z,9.40
2018-11-05T06:11:13.215Z,9.40
2018-11-05T06:13:41.526Z,9.40
2018-11-05T06:16:10.038Z,9.40
2018-11-05T06:18:38.419Z,9.40
2018-11-05T06:21:06.755Z,9.40
2018-11-05T06:23:35.083Z,9.40
2018-11-05T06:26:03.434Z,9.40
2018-11-05T06:28:31.846Z,9.40
2018-11-05T06:31:00.141Z,9.40
2018-11-05T06:33:28.501Z,9.40
2018-11-05T06:35:56.848Z,9.40
2018-11-05T06:38:25.167Z,9.40
2018-11-05T06:40:53.466Z,9.40
2018-11-05T06:43:21.786Z,9.40
2018-11-05T06:45:50.116Z,9.40
2018-11-05T06:48:18.447Z,9.40
2018-11-05T06:50:46.795Z,9.40
2018-11-05T06:53:15.107Z,9.40
2018-11-05T06:55:43.484Z,9.40
2018-11-05T06:58:11.827Z,9.40
2018-11-05T07:00:40.168Z,9.40
2018-11-05T07:03:08.522Z,9.40
2018-11-05T07:05:37.119Z,9.40
2018-11-05T07:08:05.548Z,9.40
2018-11-05T07:10:33.886Z,9.40
2018-11-05T07:13:02.211Z,9.40
2018-11-05T07:15:30.542Z,9.40
2018-11-05T07:17:58.853Z,9.50
2018-11-05T07:20:27.179Z,9.40
2018-11-05T07:22:55.511Z,9.50
2018-11-05T07:25:23.864Z,9.50
2018-11-05T07:27:52.340Z,9.40
2018-11-05T07:30:21.889Z,9.50
2018-11-05T07:32:51.384Z,9.50
2018-11-05T07:35:19.763Z,9.50
2018-11-05T07:37:48.069Z,9.50
2018-11-05T07:40:17.330Z,9.50
2018-11-05T07:42:45.667Z,9.50
2018-11-05T07:45:24.081Z,9.50
2018-11-05T07:47:52.514Z,9.50
2018-11-05T07:50:21.773Z,9.50
2018-11-05T07:52:50.555Z,9.50
2018-11-05T07:55:19.492Z,9.50
2018-11-05T07:57:48.767Z,9.50
2018-11-05T08:00:22.620Z,9.50
2018-11-05T08:02:55.611Z,9.50
2018-11-05T08:05:24.422Z,9.60
2018-11-05T08:07:52.836Z,9.60
2018-11-05T08:10:21.226Z,9.60
2018-11-05T08:12:49.573Z,9.60
2018-11-05T08:15:19.373Z,9.60
2018-11-05T08:17:48.894Z,9.70
2018-11-05T08:20:17.263Z,9.70
2018-11-05T08:22:45.602Z,9.80
2018-11-05T08:25:14.743Z,9.70
2018-11-05T08:27:43.078Z,9.80
2018-11-05T08:30:18.375Z,9.80
2018-11-05T08:32:46.691Z,9.80
2018-11-05T08:35:15.325Z,9.80
2018-11-05T08:37:44.815Z,9.80
2018-11-05T08:40:16.237Z,9.90
2018-11-05T08:42:45.288Z,9.90
2018-11-05T08:45:15.061Z,9.90
2018-11-05T08:47:43.685Z,9.90
2018-11-05T08:50:14.426Z,10.00
2018-11-05T08:52:42.724Z,10.00
2018-11-05T08:55:13.395Z,10.00
2018-11-05T08:57:42.353Z,10.10
2018-11-05T09:00:19.873Z,10.10
2018-11-05T09:02:48.323Z,10.10
2018-11-05T09:05:16.751Z,10.10
2018-11-05T09:07:45.670Z,10.10
2018-11-05T09:10:14.232Z,10.20
2018-11-05T09:12:42.927Z,10.20
2018-11-05T09:15:12.911Z,10.20
2018-11-05T09:17:42.663Z,10.20
2018-11-05T09:20:12.405Z,10.30
2018-11-05T09:22:40.870Z,10.40
2018-11-05T09:25:10.245Z,10.40
2018-11-05T09:27:38.618Z,10.50
2018-11-05T09:30:12.261Z,10.50
2018-11-05T09:32:40.699Z,10.50
2018-11-05T09:35:09.304Z,10.40
2018-11-05T09:37:37.644Z,10.40
2018-11-05T09:40:08.076Z,10.50
2018-11-05T09:42:36.420Z,10.50
2018-11-05T09:45:05.402Z,10.50
2018-11-05T09:47:33.747Z,10.50
2018-11-05T09:50:02.082Z,10.40
2018-11-05T09:52:30.486Z,10.50
2018-11-05T09:54:58.845Z,10.50
2018-11-05T09:57:27.362Z,10.50
2018-11-05T09:59:55.683Z,10.50
2018-11-05T10:02:24.050Z,10.60
2018-11-05T10:04:52.603Z,10.60
2018-11-05T10:07:20.761Z,10.60
2018-11-05T10:09:49.120Z,10.70
2018-11-05T10:12:17.459Z,10.70
2018-11-05T10:14:45.840Z,10.60
2018-11-05T10:17:14.253Z,10.70
2018-11-05T10:19:42.604Z,10.70
2018-11-05T10:22:10.974Z,10.70
2018-11-05T10:24:39.353Z,10.70
2018-11-05T10:27:07.663Z,10.70
2018-11-05T10:29:36.028Z,10.70
2018-11-05T10:32:04.414Z,10.80
2018-11-05T10:34:32.751Z,10.70
2018-11-05T10:37:01.112Z,10.80
2018-11-05T10:39:29.460Z,10.80
2018-11-05T10:41:57.797Z,10.70
2018-11-05T10:44:26.220Z,10.80
2018-11-05T10:46:54.688Z,10.90
2018-11-05T10:49:23.062Z,10.90
2018-11-05T10:51:51.461Z,10.90
2018-11-05T10:54:19.753Z,11.00
2018-11-05T10:56:48.133Z,11.00
2018-11-05T10:59:16.432Z,11.10
2018-11-05T11:01:51.165Z,11.10
2018-11-05T11:04:24.812Z,11.20
2018-11-05T11:06:53.151Z,11.20
2018-11-05T11:09:21.515Z,11.30
2018-11-05T11:11:49.851Z,11.40
2018-11-05T11:14:18.231Z,11.40
2018-11-05T11:16:46.659Z,11.40
2018-11-05T11:19:15.017Z,11.50
2018-11-05T11:21:43.428Z,11.50
2018-11-05T11:24:11.813Z,11.60
2018-11-05T11:26:40.329Z,11.50
2018-11-05T11:29:08.864Z,11.60
2018-11-05T11:31:37.152Z,11.70
2018-11-05T11:34:05.760Z,11.70
2018-11-05T11:36:34.101Z,11.80
2018-11-05T11:39:02.422Z,11.80
2018-11-05T11:41:30.743Z,11.80
2018-11-05T11:43:59.164Z,11.80
2018-11-05T11:46:27.430Z,11.80
2018-11-05T11:48:55.772Z,11.90
2018-11-05T11:51:24.189Z,11.90
2018-11-05T11:53:52.659Z,12.00
2018-11-05T11:56:20.998Z,12.00
2018-11-05T11:58:49.337Z,12.00
2018-11-05T12:01:17.693Z,11.90
2018-11-05T12:03:46.082Z,11.90
2018-11-05T12:06:14.448Z,12.00
2018-11-05T12:08:42.804Z,12.10
2018-11-05T12:11:11.139Z,12.10
2018-11-05T12:13:39.563Z,12.10
2018-11-05T12:16:07.940Z,12.10
2018-11-05T12:18:36.259Z,12.10
2018-11-05T12:21:04.704Z,12.10
2018-11-05T12:23:33.039Z,12.10
2018-11-05T12:26:01.391Z,12.10
2018-11-05T12:28:29.743Z,12.10
2018-11-05T12:30:58.091Z,12.20
2018-11-05T12:33:26.411Z,12.10
2018-11-05T12:35:54.781Z,12.10
2018-11-05T12:38:23.135Z,12.10
2018-11-05T12:40:51.651Z,12.10
2018-11-05T12:43:20.033Z,12.10
2018-11-05T12:45:48.387Z,12.20
2018-11-05T12:48:16.834Z,12.10
2018-11-05T12:50:45.251Z,12.00
2018-11-05T12:53:13.538Z,11.90
2018-11-05T12:55:41.934Z,12.00
2018-11-05T12:58:10.273Z,12.00
2018-11-05T13:00:38.639Z,12.10
2018-11-05T13:03:06.971Z,12.10
2018-11-05T13:05:35.330Z,12.10
2018-11-05T13:08:03.619Z,12.10
2018-11-05T13:10:31.958Z,12.10
2018-11-05T13:13:00.318Z,12.00
2018-11-05T13:15:28.864Z,12.00
2018-11-05T13:17:56.974Z,12.10
2018-11-05T13:20:25.406Z,12.00
2018-11-05T13:22:53.723Z,12.00
2018-11-05T13:25:22.087Z,11.90
2018-11-05T13:27:51.299Z,11.90
2018-11-05T13:30:19.767Z,11.90
2018-11-05T13:32:48.235Z,12.00
2018-11-05T13:35:18.497Z,12.20
2018-11-05T13:37:47.199Z,12.20
2018-11-05T13:40:17.639Z,12.20
2018-11-05T13:42:46.568Z,12.30
2018-11-05T13:45:15.544Z,12.20
2018-11-05T13:47:44.273Z,12.20
2018-11-05T13:50:12.839Z,12.10
2018-11-05T13:52:41.468Z,12.00
2018-11-05T13:55:11.760Z,11.90
2018-11-05T13:57:40.540Z,11.90
2018-11-05T14:00:10.603Z,11.80
2018-11-05T14:02:39.016Z,11.80
2018-11-05T14:05:07.703Z,11.70
2018-11-05T14:07:36.501Z,11.60
2018-11-05T14:10:06.583Z,11.70
2018-11-05T14:12:34.943Z,11.60
2018-11-05T14:15:03.327Z,11.50
2018-11-05T14:17:31.629Z,11.50
2018-11-05T14:19:59.971Z,11.40
2018-11-05T14:22:28.405Z,11.40
2018-11-05T14:24:56.722Z,11.40
2018-11-05T14:27:25.135Z,11.40
2018-11-05T14:29:53.716Z,11.40
2018-11-05T14:32:21.814Z,11.30
2018-11-05T14:34:50.090Z,11.30
2018-11-05T14:37:18.466Z,11.30
2018-11-05T14:39:46.860Z,11.30
2018-11-05T14:42:15.266Z,11.30
2018-11-05T14:44:43.614Z,11.30
2018-11-05T14:47:11.967Z,11.30
2018-11-05T14:49:40.311Z,11.20
2018-11-05T14:52:08.664Z,11.20
2018-11-05T14:54:37.030Z,11.20
2018-11-05T14:57:05.903Z,11.20
2018-11-05T14:59:34.319Z,11.20
2018-11-05T15:02:08.051Z,11.20
2018-11-05T15:04:36.370Z,11.20
2018-11-05T15:07:05.125Z,11.10
2018-11-05T15:09:33.490Z,11.10
2018-11-05T15:12:01.918Z,11.10
2018-11-05T15:14:30.270Z,11.00
2018-11-05T15:16:58.634Z,11.00
2018-11-05T15:19:27.603Z,11.00
2018-11-05T15:21:55.547Z,10.90
2018-11-05T15:24:23.910Z,10.90
2018-11-05T15:26:52.390Z,10.90
2018-11-05T15:29:20.594Z,10.80
2018-11-05T15:31:48.944Z,10.80
2018-11-05T15:34:17.279Z,10.80
2018-11-05T15:36:45.627Z,10.80
2018-11-05T15:39:14.077Z,10.70
2018-11-05T15:41:42.453Z,10.70
2018-11-05T15:44:10.939Z,10.70
2018-11-05T15:46:39.290Z,10.60
2018-11-05T15:49:07.632Z,10.60
2018-11-05T15:51:36.180Z,10.60
2018-11-05T15:54:04.398Z,10.60
2018-11-05T15:56:32.700Z,10.60
2018-11-05T15:59:01.047Z,10.60
2018-11-05T16:01:29.374Z,10.50
2018-11-05T16:03:57.713Z,10.60
2018-11-05T16:06:26.004Z,10.50
2018-11-05T16:08:54.330Z,10.50
2018-11-05T16:11:22.772Z,10.50
2018-11-05T16:13:51.126Z,10.50
2018-11-05T16:16:19.443Z,10.40
2018-11-05T16:18:47.785Z,10.40
2018-11-05T16:21:16.147Z,10.40
2018-11-05T16:23:44.465Z,10.30
2018-11-05T16:26:12.830Z,10.30
2018-11-05T16:28:41.324Z,10.30
2018-11-05T16:31:09.874Z,10.30
2018-11-05T16:33:38.195Z,10.30
2018-11-05T16:36:06.567Z,10.30
2018-11-05T16:38:34.938Z,10.30
2018-11-05T16:41:03.415Z,10.20
2018-11-05T16:43:31.736Z,10.20
2018-11-05T16:46:00.237Z,10.20
2018-11-05T16:48:28.571Z,10.20
2018-11-05T16:50:56.879Z,10.20
2018-11-05T16:53:25.162Z,10.20
2018-11-05T16:55:53.586Z,10.20
2018-11-05T16:58:21.900Z,10.20
2018-11-05T17:00:50.311Z,10.10
2018-11-05T17:03:18.624Z,10.10
2018-11-05T17:05:46.863Z,10.10
2018-11-05T17:08:15.179Z,10.10
2018-11-05T17:10:43.551Z,10.10
2018-11-05T17:13:11.934Z,10.10
2018-11-05T17:15:40.299Z,10.10
2018-11-05T17:18:08.623Z,10.10
2018-11-05T17:20:36.963Z,10.10
2018-11-05T17:23:05.474Z,10.10
2018-11-05T17:25:33.831Z,10.00
2018-11-05T17:28:02.275Z,10.00
2018-11-05T17:30:30.643Z,10.00
2018-11-05T17:32:58.989Z,10.00
2018-11-05T17:35:27.245Z,9.90
2018-11-05T17:37:55.588Z,9.90
2018-11-05T17:40:23.914Z,9.90
2018-11-05T17:42:52.395Z,9.90
2018-11-05T17:45:21.038Z,9.90
2018-11-05T17:47:49.621Z,9.90
2018-11-05T17:50:19.566Z,9.90
2018-11-05T17:52:47.953Z,9.90
2018-11-05T17:55:17.010Z,9.80
2018-11-05T17:57:46.722Z,9.80
2018-11-05T18:00:16.423Z,9.90
2018-11-05T18:02:44.686Z,9.80
2018-11-05T18:05:13.031Z,9.80
2018-11-05T18:07:41.518Z,9.80
2018-11-05T18:10:10.297Z,9.80
2018-11-05T18:12:38.547Z,9.80
2018-11-05T18:15:08.425Z,9.80
2018-11-05T18:17:36.970Z,9.70
2018-11-05T18:20:06.702Z,9.70
2018-11-05T18:22:34.904Z,9.70
2018-11-05T18:25:03.221Z,9.70
2018-11-05T18:27:31.556Z,9.60
2018-11-05T18:29:59.920Z,9.60
2018-11-05T18:32:28.142Z,9.60
2018-11-05T18:34:56.703Z,9.60
2018-11-05T18:37:25.371Z,9.60
2018-11-05T18:39:53.583Z,9.60
2018-11-05T18:42:21.806Z,9.60
2018-11-05T18:44:50.220Z,9.60
2018-11-05T18:47:18.889Z,9.60
2018-11-05T18:49:47.391Z,9.60
2018-11-05T18:52:15.755Z,9.60
2018-11-05T18:54:44.155Z,9.60
2018-11-05T18:57:12.530Z,9.70
2018-11-05T18:59:40.870Z,9.70
2018-11-05T19:02:09.203Z,9.60
2018-11-05T19:04:37.550Z,9.70
2018-11-05T19:07:05.912Z,9.60
2018-11-05T19:09:34.435Z,9.60
2018-11-05T19:12:02.679Z,9.60
2018-11-05T19:14:31.119Z,9.60
2018-11-05T19:16:59.443Z,9.60
2018-11-05T19:19:27.797Z,9.60
2018-11-05T19:21:56.168Z,9.60
2018-11-05T19:24:24.652Z,9.60
2018-11-05T19:26:52.845Z,9.60
2018-11-05T19:29:21.211Z,9.50
2018-11-05T19:31:49.539Z,9.50
2018-11-05T19:34:17.941Z,9.40
2018-11-05T19:36:46.263Z,9.40
2018-11-05T19:39:14.588Z,9.40
2018-11-05T19:41:43.049Z,9.40
2018-11-05T19:44:11.395Z,9.40
2018-11-05T19:46:40.087Z,9.30
2018-11-05T19:49:08.426Z,9.30
2018-11-05T19:51:36.785Z,9.30
2018-11-05T19:54:05.120Z,9.20
2018-11-05T19:56:33.540Z,9.20
2018-11-05T19:59:02.652Z,9.20
2018-11-05T20:01:31.123Z,9.00
2018-11-05T20:03:59.498Z,9.00
2018-11-05T20:06:27.842Z,9.00
2018-11-05T20:08:56.201Z,8.90
2018-11-05T20:11:24.587Z,8.90
2018-11-05T20:13:53.286Z,8.90
2018-11-05T20:16:21.741Z,8.80
2018-11-05T20:18:50.125Z,8.80
2018-11-05T20:21:18.831Z,8.70
2018-11-05T20:23:47.181Z,8.70
2018-11-05T20:26:15.555Z,8.60
2018-11-05T20:28:43.990Z,8.60
2018-11-05T20:31:12.440Z,8.60
2018-11-05T20:33:40.746Z,8.60
2018-11-05T20:36:08.999Z,8.60
2018-11-05T20:38:37.341Z,8.50
2018-11-05T20:41:05.883Z,8.50
2018-11-05T20:43:34.366Z,8.40
2018-11-05T20:46:02.698Z,8.40
2018-11-05T20:48:31.091Z,8.40
2018-11-05T20:50:59.389Z,8.30
2018-11-05T20:53:27.878Z,8.30
2018-11-05T20:55:56.255Z,8.30
2018-11-05T20:58:25.834Z,8.20
2018-11-05T21:00:54.502Z,8.20
2018-11-05T21:03:22.866Z,8.10
2018-11-05T21:05:52.015Z,8.00
2018-11-05T21:08:21.000Z,8.00
2018-11-05T21:10:49.463Z,8.00
2018-11-05T21:13:18.055Z,8.00
2018-11-05T21:15:46.692Z,7.90
2018-11-05T21:18:15.462Z,7.90
2018-11-05T21:20:44.337Z,7.90
2018-11-05T21:23:15.879Z,7.90
2018-11-05T21:25:45.779Z,7.80
2018-11-05T21:28:14.249Z,7.80
2018-11-05T21:30:42.643Z,7.90
2018-11-05T21:33:11.580Z,7.90
2018-11-05T21:35:40.531Z,7.90
2018-11-05T21:38:09.287Z,7.90
2018-11-05T21:40:38.078Z,7.80
2018-11-05T21:43:06.829Z,7.80
2018-11-05T21:45:35.612Z,7.80
2018-11-05T21:48:04.727Z,7.80
2018-11-05T21:50:33.415Z,7.80
2018-11-05T21:53:02.897Z,7.80
2018-11-05T21:55:31.320Z,7.70
2018-11-05T21:58:00.107Z,7.70
2018-11-05T22:00:28.514Z,7.70
2018-11-05T22:03:03.277Z,7.70
2018-11-05T22:05:31.581Z,7.60
2018-11-05T22:07:59.922Z,7.50
2018-11-05T22:10:28.267Z,7.50
2018-11-05T22:12:56.590Z,7.40
2018-11-05T22:15:29.310Z,7.30
2018-11-05T22:17:57.674Z,7.20
2018-11-05T22:20:26.037Z,7.10
2018-11-05T22:22:54.367Z,7.10
2018-11-05T22:25:22.727Z,7.10
2018-11-05T22:27:51.047Z,7.10
2018-11-05T22:30:19.416Z,6.90
2018-11-05T22:32:47.768Z,6.80
2018-11-05T22:35:16.123Z,6.80
2018-11-05T22:37:44.455Z,6.80
2018-11-05T22:40:14.048Z,6.70
2018-11-05T22:42:42.468Z,6.70
2018-11-05T22:45:12.360Z,6.70
2018-11-05T22:47:40.920Z,6.70
2018-11-05T22:50:09.686Z,6.70
2018-11-05T22:52:38.483Z,6.60
2018-11-05T22:55:07.084Z,6.50
2018-11-05T22:57:35.415Z,6.50
2018-11-05T23:00:04.206Z,6.20
2018-11-05T23:02:32.533Z,6.10
2018-11-05T23:05:00.863Z,5.90
2018-11-05T23:07:29.201Z,5.90
2018-11-05T23:09:57.626Z,5.80
2018-11-05T23:12:26.109Z,5.90
2018-11-05T23:14:54.419Z,5.80
2018-11-05T23:17:22.736Z,5.60
2018-11-05T23:19:52.100Z,5.60
2018-11-05T23:22:20.548Z,5.60
2018-11-05T23:24:48.866Z,5.70
2018-11-05T23:27:17.201Z,5.70
2018-11-05T23:29:45.551Z,5.80
2018-11-05T23:32:13.839Z,5.80
2018-11-05T23:34:42.177Z,5.80
2018-11-05T23:37:10.522Z,5.80
2018-11-05T23:39:38.849Z,5.80
2018-11-05T23:42:07.186Z,5.80
2018-11-05T23:44:35.464Z,5.80
2018-11-05T23:47:03.823Z,5.80
2018-11-05T23:49:32.182Z,5.70
2018-11-05T23:52:00.585Z,5.70
2018-11-05T23:54:28.887Z,5.60
2018-11-05T23:56:57.206Z,5.50
2018-11-05T23:59:25.555Z,5.50
